Time;durP1;ratioP1;P1;durP2;ratioP2;P2;SDS_P1;SDS_P2;PMS_P1;PMS_P2;Temp;Humidity;BMP_temperature;BMP_pressure;BME280_temperature;BME280_humidity;BME280_pressure;Samples;Min_cycle;Max_cycle;Signal;HPM_P1;HPM_P2
2022/11/17 00:00:29;;;;;;;4.70;3.20;;;6.00;99.90;;;;;;5083029;28;20031;-74
2022/11/17 00:02:55;;;;;;;6.82;3.65;;;6.00;99.90;;;;;;5085187;28;20023;-74
2022/11/17 00:05:21;;;;;;;4.90;3.40;;;6.00;99.90;;;;;;5102244;28;20035;-73
2022/11/17 00:07:48;;;;;;;5.60;3.55;;;6.00;99.90;;;;;;5090220;28;20024;-74
2022/11/17 00:10:16;;;;;;;5.97;3.65;;;6.00;99.90;;;;;;5086466;28;20024;-74
2022/11/17 00:15:26;;;;;;;6.18;3.90;;;6.10;99.90;;;;;;5097353;28;20472;-74
2022/11/17 00:23:25;;;;;;;7.20;4.00;;;6.00;99.90;;;;;;5100119;28;20024;-74
2022/11/17 00:25:50;;;;;;;6.40;3.53;;;6.00;99.90;;;;;;5100924;28;20485;-72
2022/11/17 00:28:16;;;;;;;8.95;4.05;;;6.00;99.90;;;;;;5102768;28;20027;-73
2022/11/17 00:36:10;;;;;;;6.72;3.67;;;6.00;99.90;;;;;;5086847;28;20113;-73
2022/11/17 00:38:36;;;;;;;6.35;4.35;;;6.00;99.90;;;;;;5089796;28;20507;-73
2022/11/17 00:41:02;;;;;;;8.85;4.18;;;6.00;99.90;;;;;;5089439;28;20035;-73
2022/11/17 00:43:28;;;;;;;7.30;4.30;;;6.00;99.90;;;;;;5106406;28;20075;-73
2022/11/17 00:45:53;;;;;;;7.18;4.35;;;6.00;99.90;;;;;;5109035;28;20055;-73
2022/11/17 00:48:19;;;;;;;8.77;5.00;;;6.00;99.90;;;;;;5105850;28;20490;-73
2022/11/17 00:50:45;;;;;;;7.90;4.40;;;6.00;99.90;;;;;;5109814;28;20085;-75
2022/11/17 00:53:11;;;;;;;7.35;4.60;;;6.00;99.90;;;;;;5072823;28;20115;-73
2022/11/17 00:55:36;;;;;;;8.48;4.75;;;6.00;99.90;;;;;;5089862;28;20035;-73
2022/11/17 00:58:02;;;;;;;10.15;5.13;;;6.00;99.90;;;;;;5104443;28;20023;-73
2022/11/17 01:00:28;;;;;;;8.30;4.63;;;6.00;99.90;;;;;;5099769;28;20574;-73
2022/11/17 01:02:54;;;;;;;8.80;4.75;;;6.00;99.90;;;;;;5087898;28;20027;-73
2022/11/17 01:05:19;;;;;;;7.20;4.40;;;6.00;99.90;;;;;;5105229;28;20080;-72
2022/11/17 01:07:45;;;;;;;9.40;5.32;;;5.90;99.90;;;;;;5090344;28;20037;-73
2022/11/17 01:10:11;;;;;;;7.00;5.20;;;5.90;99.90;;;;;;5085413;28;20495;-73
2022/11/17 01:12:37;;;;;;;8.25;4.80;;;6.00;99.90;;;;;;5089723;28;20258;-73
2022/11/17 01:15:03;;;;;;;8.85;4.88;;;5.90;99.90;;;;;;5107126;28;20108;-73
2022/11/17 01:17:29;;;;;;;8.27;4.95;;;6.00;99.90;;;;;;5083629;28;20618;-72
2022/11/17 01:19:54;;;;;;;8.63;5.57;;;6.00;99.90;;;;;;5085476;28;20047;-73
2022/11/17 01:22:20;;;;;;;9.63;5.45;;;6.00;99.90;;;;;;5083910;28;20088;-73
2022/11/17 01:24:46;;;;;;;9.02;5.70;;;6.00;99.90;;;;;;5103970;28;20027;-72
2022/11/17 01:27:12;;;;;;;10.52;5.60;;;5.90;99.90;;;;;;5091247;28;20396;-72
2022/11/17 01:29:37;;;;;;;7.68;5.68;;;5.90;99.90;;;;;;5090715;28;20028;-72
2022/11/17 01:32:03;;;;;;;7.60;5.18;;;5.90;99.90;;;;;;5083713;28;20675;-72
2022/11/17 01:34:29;;;;;;;7.90;5.50;;;6.00;99.90;;;;;;5105606;28;20069;-73
2022/11/17 01:39:39;;;;;;;9.20;5.50;;;5.90;99.90;;;;;;5103882;28;20032;-74
2022/11/17 01:42:12;;;;;;;9.20;5.40;;;5.90;99.90;;;;;;5087216;28;20031;-72
2022/11/17 01:44:51;;;;;;;7.97;5.55;;;5.90;99.90;;;;;;5086589;28;20063;-72
2022/11/17 01:47:20;;;;;;;9.32;5.88;;;5.90;99.90;;;;;;5083788;28;20043;-74
2022/11/17 01:49:47;;;;;;;9.07;5.88;;;5.90;99.90;;;;;;5103564;27;20084;-74
2022/11/17 01:52:14;;;;;;;8.63;5.93;;;5.90;99.90;;;;;;5101637;28;20027;-73
2022/11/17 01:54:42;;;;;;;9.35;6.13;;;5.90;99.90;;;;;;5105301;28;20031;-73
2022/11/17 01:57:16;;;;;;;8.73;5.70;;;5.90;99.90;;;;;;5075968;28;20039;-73
2022/11/17 01:59:48;;;;;;;8.98;5.75;;;5.80;99.90;;;;;;5090453;28;20035;-73
2022/11/17 02:02:13;;;;;;;9.68;6.60;;;5.90;99.90;;;;;;5082213;28;20035;-73
2022/11/17 02:05:07;;;;;;;9.80;6.40;;;5.80;99.90;;;;;;5083908;28;20036;-74
2022/11/17 02:07:36;;;;;;;8.60;6.85;;;5.80;99.90;;;;;;5103697;28;20084;-73
2022/11/17 02:10:03;;;;;;;10.10;6.20;;;5.80;99.90;;;;;;5084878;28;20075;-73
2022/11/17 02:12:31;;;;;;;9.30;5.88;;;5.70;99.90;;;;;;5085686;28;20114;-73
2022/11/17 02:14:57;;;;;;;10.00;6.25;;;5.70;99.90;;;;;;5089840;28;20024;-73
2022/11/17 02:17:48;;;;;;;9.20;6.25;;;5.70;99.90;;;;;;5086186;28;20047;-73
2022/11/17 02:20:20;;;;;;;9.33;6.17;;;5.80;99.90;;;;;;5099657;28;20199;-73
2022/11/17 02:23:11;;;;;;;9.48;6.60;;;5.80;99.90;;;;;;5099049;27;20379;-73
2022/11/17 02:26:01;;;;;;;9.00;6.45;;;5.70;99.90;;;;;;5090455;28;20027;-74
2022/11/17 02:28:42;;;;;;;9.00;6.53;;;5.80;99.90;;;;;;5086564;28;20020;-74
2022/11/17 02:31:27;;;;;;;8.48;6.35;;;5.70;99.90;;;;;;5103156;28;20061;-74
2022/11/17 02:34:31;;;;;;;8.45;6.30;;;5.70;99.90;;;;;;5087515;28;20019;-73
2022/11/17 02:37:10;;;;;;;9.80;6.13;;;5.70;99.90;;;;;;5081797;28;20406;-74
2022/11/17 02:39:46;;;;;;;7.95;6.25;;;5.60;99.90;;;;;;5090292;28;20035;-74
2022/11/17 02:45:23;;;;;;;8.63;6.45;;;5.60;99.90;;;;;;5103886;28;20062;-74
2022/11/17 02:47:52;;;;;;;9.93;6.93;;;5.70;99.90;;;;;;5098377;28;20024;-73
2022/11/17 02:50:20;;;;;;;8.85;6.85;;;5.70;99.90;;;;;;5086719;28;20436;-73
2022/11/17 02:52:46;;;;;;;10.13;6.57;;;5.70;99.90;;;;;;5066923;28;20068;-73
2022/11/17 02:55:13;;;;;;;7.05;6.13;;;5.60;99.90;;;;;;5106809;28;20027;-73
2022/11/17 02:57:40;;;;;;;10.20;6.32;;;5.70;99.90;;;;;;5088112;28;20395;-73
2022/11/17 03:00:17;;;;;;;9.85;6.07;;;5.70;99.90;;;;;;5105100;28;20508;-73
2022/11/17 03:02:42;;;;;;;10.82;6.53;;;5.70;99.90;;;;;;5090364;28;20485;-73
2022/11/17 03:05:27;;;;;;;10.18;6.93;;;5.70;99.90;;;;;;5088983;28;20311;-73
2022/11/17 03:08:26;;;;;;;7.43;6.20;;;5.60;99.90;;;;;;5070420;28;20110;-73
2022/11/17 03:11:01;;;;;;;8.63;6.28;;;5.60;99.90;;;;;;5091518;28;20019;-74
2022/11/17 03:13:55;;;;;;;10.35;6.68;;;5.60;99.90;;;;;;5088065;28;20020;-73
2022/11/17 03:16:47;;;;;;;8.07;6.07;;;5.60;99.90;;;;;;5102818;28;20036;-73
2022/11/17 03:19:18;;;;;;;7.80;5.93;;;5.50;99.90;;;;;;5104998;28;20407;-73
2022/11/17 03:21:58;;;;;;;9.13;6.97;;;5.60;99.90;;;;;;5108441;28;20027;-74
2022/11/17 03:24:35;;;;;;;8.55;5.90;;;5.50;99.90;;;;;;5105386;28;20027;-73
2022/11/17 03:27:16;;;;;;;8.38;6.72;;;5.50;99.90;;;;;;5069489;28;20032;-74
2022/11/17 03:29:45;;;;;;;;;;;5.50;99.90;;;;;;5090145;28;20026;-73
2022/11/17 03:32:13;;;;;;;7.00;5.85;;;5.50;99.90;;;;;;5086467;28;19920;-73
2022/11/17 03:34:44;;;;;;;9.98;6.22;;;5.50;99.90;;;;;;5105909;28;20020;-73
2022/11/17 03:37:13;;;;;;;8.13;6.25;;;5.40;99.90;;;;;;5104450;28;20032;-74
2022/11/17 03:39:42;;;;;;;9.13;5.82;;;5.40;99.90;;;;;;5101107;28;20108;-74
2022/11/17 03:42:27;;;;;;;7.35;5.63;;;5.40;99.90;;;;;;5104328;28;20934;-74
2022/11/17 03:45:01;;;;;;;9.52;6.32;;;5.40;99.90;;;;;;5086046;28;20081;-74
2022/11/17 03:47:29;;;;;;;9.75;5.78;;;5.40;99.90;;;;;;5103374;28;20038;-74
2022/11/17 03:49:58;;;;;;;8.60;5.85;;;5.40;99.90;;;;;;5085164;28;20019;-74
2022/11/17 03:52:25;;;;;;;9.45;6.35;;;5.40;99.90;;;;;;5085273;28;20020;-74
2022/11/17 03:54:52;;;;;;;8.40;6.07;;;5.30;99.90;;;;;;5101362;28;20032;-74
2022/11/17 03:57:32;;;;;;;7.10;5.53;;;5.30;99.90;;;;;;5071473;28;20031;-74
2022/11/17 04:00:04;;;;;;;8.40;6.72;;;5.30;99.90;;;;;;5108326;28;20059;-73
2022/11/17 04:02:30;;;;;;;10.00;6.47;;;5.30;99.90;;;;;;5083927;28;20585;-74
2022/11/17 04:05:05;;;;;;;9.35;6.47;;;5.30;99.90;;;;;;5090907;28;20039;-72
2022/11/17 04:07:35;;;;;;;8.00;6.30;;;5.20;99.90;;;;;;5109629;28;20043;-73
2022/11/17 04:10:01;;;;;;;8.43;6.07;;;5.30;99.90;;;;;;5114301;28;20495;-73
2022/11/17 04:17:56;;;;;;;8.38;5.88;;;5.30;99.90;;;;;;5105184;28;20149;-73
2022/11/17 04:20:22;;;;;;;7.47;5.85;;;5.20;99.90;;;;;;5108213;28;20040;-73
2022/11/17 04:23:05;;;;;;;7.93;5.43;;;5.20;99.90;;;;;;5112413;28;20024;-74
2022/11/17 04:28:37;;;;;;;7.70;5.80;;;5.20;99.90;;;;;;5114982;28;20019;-74
2022/11/17 04:31:14;;;;;;;8.77;5.93;;;5.20;99.90;;;;;;5109875;28;20061;-74
2022/11/17 04:33:45;;;;;;;8.13;5.95;;;5.20;99.90;;;;;;5075398;28;20059;-73
2022/11/17 04:36:12;;;;;;;;;;;5.20;99.90;;;;;;5110684;28;20027;-73
2022/11/17 04:38:46;;;;;;;8.27;6.03;;;5.10;99.90;;;;;;5077155;28;20278;-73
2022/11/17 04:43:59;;;;;;;8.73;5.55;;;5.20;99.90;;;;;;5108764;28;20035;-73
2022/11/17 04:46:25;;;;;;;8.57;5.70;;;5.20;99.90;;;;;;5089923;28;20023;-72
2022/11/17 04:48:54;;;;;;;8.35;6.00;;;5.20;99.90;;;;;;5089983;28;20110;-72
2022/11/17 04:51:21;;;;;;;8.70;5.93;;;5.20;99.90;;;;;;5094257;28;20038;-73
2022/11/17 04:53:46;;;;;;;9.40;5.72;;;5.20;99.90;;;;;;5088606;28;20047;-73
2022/11/17 04:56:12;;;;;;;8.70;6.28;;;5.20;99.90;;;;;;5111465;28;20070;-73
2022/11/17 04:58:39;;;;;;;12.50;6.88;;;5.20;99.90;;;;;;5087948;28;20436;-73
2022/11/17 05:01:16;;;;;;;8.20;5.88;;;5.10;99.90;;;;;;5111252;28;20461;-74
2022/11/17 05:03:53;;;;;;;9.43;6.70;;;5.10;99.90;;;;;;5108041;28;20032;-74
2022/11/17 05:06:22;;;;;;;8.88;6.15;;;5.10;99.90;;;;;;5092558;28;20051;-74
2022/11/17 05:08:48;;;;;;;9.70;6.57;;;5.10;99.90;;;;;;5101737;28;20050;-73
2022/11/17 05:14:01;;;;;;;10.18;6.78;;;5.10;99.90;;;;;;5107772;28;20034;-74
2022/11/17 05:19:15;;;;;;;12.20;7.43;;;5.10;99.90;;;;;;5107216;28;20523;-74
2022/11/17 05:21:41;;;;;;;9.15;7.10;;;5.10;99.90;;;;;;5090632;28;20509;-74
2022/11/17 05:24:07;;;;;;;9.63;7.07;;;5.10;99.90;;;;;;5089576;28;20027;-73
2022/11/17 05:26:36;;;;;;;10.82;7.30;;;5.10;99.90;;;;;;5109200;28;20019;-72
2022/11/17 05:29:05;;;;;;;9.52;7.18;;;5.10;99.90;;;;;;5088756;28;20028;-74
2022/11/17 05:31:31;;;;;;;12.40;7.38;;;5.10;99.90;;;;;;5106381;28;20032;-71
2022/11/17 05:33:57;;;;;;;10.50;6.85;;;5.10;99.90;;;;;;5105886;28;20441;-73
2022/11/17 05:36:25;;;;;;;10.77;7.45;;;5.00;99.90;;;;;;5108112;28;20023;-73
2022/11/17 05:38:51;;;;;;;11.52;8.23;;;5.00;99.90;;;;;;5109014;28;20050;-71
2022/11/17 05:41:18;;;;;;;12.05;8.57;;;5.10;99.90;;;;;;5109852;28;20761;-73
2022/11/17 05:43:44;;;;;;;11.32;7.35;;;5.00;99.90;;;;;;5103756;28;20577;-73
2022/11/17 05:46:11;;;;;;;10.35;7.70;;;5.00;99.90;;;;;;5100700;27;20088;-73
2022/11/17 05:48:38;;;;;;;10.85;7.82;;;4.90;99.90;;;;;;5085052;28;20068;-72
2022/11/17 05:51:05;;;;;;;11.10;7.55;;;5.00;99.90;;;;;;5101823;28;20044;-72
2022/11/17 05:53:32;;;;;;;12.38;7.88;;;5.00;99.90;;;;;;5108806;28;20028;-72
2022/11/17 05:56:29;;;;;;;10.75;7.80;;;5.00;99.90;;;;;;5090174;28;20062;-75
2022/11/17 05:59:15;;;;;;;10.68;7.68;;;4.90;99.90;;;;;;5091646;28;20039;-74
2022/11/17 06:02:07;;;;;;;11.38;8.20;;;4.90;99.90;;;;;;5075349;28;20115;-72
2022/11/17 06:04:33;;;;;;;15.70;8.27;;;5.20;99.90;;;;;;5081708;28;20046;-74
2022/11/17 06:07:00;;;;;;;12.57;8.57;;;5.10;99.90;;;;;;5084734;28;20031;-73
2022/11/17 06:09:33;;;;;;;9.88;7.47;;;5.00;99.90;;;;;;5089943;28;20038;-73
2022/11/17 06:12:00;;;;;;;11.40;7.60;;;5.00;99.90;;;;;;5102891;27;20028;-72
2022/11/17 06:14:25;;;;;;;12.07;8.50;;;5.00;99.90;;;;;;5103987;28;20105;-72
2022/11/17 06:16:57;;;;;;;16.50;8.43;;;4.90;99.90;;;;;;5069765;28;20052;-73
2022/11/17 06:19:32;;;;;;;11.57;8.45;;;4.90;99.90;;;;;;5071180;28;20032;-72
2022/11/17 06:21:58;;;;;;;10.52;7.78;;;4.90;99.90;;;;;;5081758;28;20525;-73
2022/11/17 06:24:24;;;;;;;11.05;7.80;;;4.90;99.90;;;;;;5103597;28;20032;-73
2022/11/17 06:26:50;;;;;;;13.32;8.48;;;4.90;99.90;;;;;;5071944;28;20138;-74
2022/11/17 06:29:16;;;;;;;15.23;8.40;;;4.90;99.90;;;;;;5086467;28;20019;-73
2022/11/17 06:31:43;;;;;;;12.30;8.82;;;4.90;99.90;;;;;;5079196;28;20038;-74
2022/11/17 06:34:09;;;;;;;12.93;8.77;;;5.00;99.90;;;;;;5085973;28;20106;-73
2022/11/17 06:36:36;;;;;;;14.43;9.55;;;4.90;99.90;;;;;;5103023;28;20070;-72
2022/11/17 06:39:02;;;;;;;11.63;8.55;;;4.90;99.90;;;;;;5087544;28;20028;-72
2022/11/17 06:41:28;;;;;;;11.60;8.57;;;4.90;99.90;;;;;;5106946;28;20053;-72
2022/11/17 06:43:53;;;;;;;11.45;8.23;;;4.90;99.90;;;;;;5105288;28;20044;-74
2022/11/17 06:46:19;;;;;;;12.15;9.10;;;4.90;99.90;;;;;;5087039;28;20023;-74
2022/11/17 06:48:45;;;;;;;14.55;8.52;;;5.00;99.90;;;;;;5104959;28;20601;-73
2022/11/17 06:51:11;;;;;;;12.18;8.63;;;5.00;99.90;;;;;;5102730;28;20027;-72
2022/11/17 06:53:36;;;;;;;12.60;8.45;;;5.00;99.90;;;;;;5106403;28;20019;-73
2022/11/17 06:56:04;;;;;;;11.32;8.70;;;4.90;99.90;;;;;;5084232;28;20042;-73
2022/11/17 06:58:31;;;;;;;10.70;7.88;;;4.90;99.90;;;;;;5092004;28;20118;-74
2022/11/17 07:01:05;;;;;;;13.10;8.40;;;4.90;99.90;;;;;;5078630;28;20048;-73
2022/11/17 07:03:32;;;;;;;12.60;8.68;;;4.90;99.90;;;;;;5101318;28;20254;-72
2022/11/17 07:06:00;;;;;;;16.58;9.10;;;4.90;99.90;;;;;;5095360;28;20050;-73
2022/11/17 07:08:40;;;;;;;12.60;8.52;;;4.90;99.90;;;;;;5029804;28;20454;-72
2022/11/17 07:11:09;;;;;;;11.30;8.30;;;4.90;99.90;;;;;;5042243;28;20029;-73
2022/11/17 07:13:36;;;;;;;10.90;8.45;;;4.80;99.90;;;;;;5026014;28;20080;-73
2022/11/17 07:16:03;;;;;;;13.68;8.52;;;4.80;99.90;;;;;;5008928;28;20032;-73
2022/11/17 07:18:29;;;;;;;11.85;8.80;;;4.80;99.90;;;;;;5011600;28;20060;-72
2022/11/17 07:20:54;;;;;;;12.93;8.02;;;4.80;99.90;;;;;;5009441;28;20068;-73
2022/11/17 07:23:21;;;;;;;11.93;8.63;;;4.90;99.90;;;;;;5011452;28;20032;-72
2022/11/17 07:25:46;;;;;;;15.38;9.00;;;4.90;99.90;;;;;;5004259;28;22400;-72
2022/11/17 07:28:13;;;;;;;11.85;8.13;;;4.90;99.90;;;;;;5011369;28;20114;-72
2022/11/17 07:30:39;;;;;;;12.57;7.65;;;4.90;99.90;;;;;;5009923;28;20037;-72
2022/11/17 07:33:05;;;;;;;10.90;8.63;;;4.90;99.90;;;;;;4999196;28;20052;-72
2022/11/17 07:35:31;;;;;;;13.00;8.65;;;4.90;99.90;;;;;;5006024;28;20414;-71
2022/11/17 07:37:58;;;;;;;12.65;8.30;;;4.80;99.90;;;;;;5009393;28;20030;-73
2022/11/17 07:40:24;;;;;;;12.95;8.50;;;4.80;99.90;;;;;;5008336;28;20857;-72
2022/11/17 07:42:50;;;;;;;13.40;8.65;;;4.80;99.90;;;;;;5007928;28;20172;-72
2022/11/17 07:45:17;;;;;;;11.52;8.40;;;4.80;99.90;;;;;;4999802;28;20034;-73
2022/11/17 07:47:43;;;;;;;12.40;7.95;;;4.80;99.90;;;;;;5009518;28;20049;-73
2022/11/17 07:50:09;;;;;;;11.93;8.35;;;4.80;99.90;;;;;;5010485;28;20089;-72
2022/11/17 07:52:34;;;;;;;13.63;7.97;;;4.80;99.90;;;;;;5024327;28;20105;-72
2022/11/17 07:55:00;;;;;;;11.13;8.02;;;4.80;99.90;;;;;;5013335;28;20049;-73
2022/11/17 07:57:27;;;;;;;11.30;8.15;;;4.80;99.90;;;;;;5011106;28;20075;-73
2022/11/17 07:59:53;;;;;;;11.50;8.07;;;4.80;99.90;;;;;;5006042;28;20425;-72
2022/11/17 08:02:19;;;;;;;11.10;8.15;;;4.80;99.90;;;;;;5009307;28;20069;-72
2022/11/17 08:04:45;;;;;;;14.43;7.90;;;4.80;99.90;;;;;;5013217;28;20061;-73
2022/11/17 08:07:10;;;;;;;11.48;8.23;;;4.80;99.90;;;;;;5010168;28;20025;-72
2022/11/17 08:09:36;;;;;;;14.18;8.52;;;4.80;99.90;;;;;;5011146;28;20033;-73
2022/11/17 08:12:02;;;;;;;14.13;9.07;;;4.80;99.90;;;;;;5013444;28;20056;-72
2022/11/17 08:14:28;;;;;;;14.35;8.02;;;4.80;99.90;;;;;;5011068;28;20076;-72
2022/11/17 08:16:54;;;;;;;13.60;8.50;;;4.80;99.90;;;;;;5042513;28;20512;-73
2022/11/17 08:19:20;;;;;;;11.68;8.63;;;4.80;99.90;;;;;;5004917;28;20037;-73
2022/11/17 08:21:45;;;;;;;12.32;8.35;;;4.80;99.90;;;;;;4998350;28;20034;-72
2022/11/17 08:24:11;;;;;;;14.75;8.23;;;4.80;99.90;;;;;;4998577;28;20062;-72
2022/11/17 08:26:37;;;;;;;11.50;7.78;;;4.80;99.90;;;;;;4980843;28;20115;-72
2022/11/17 08:29:03;;;;;;;15.48;8.38;;;4.80;99.90;;;;;;4995730;28;20073;-74
2022/11/17 08:31:29;;;;;;;12.75;8.27;;;4.80;99.90;;;;;;4979613;28;20037;-71
2022/11/17 08:33:55;;;;;;;11.50;7.88;;;4.80;99.90;;;;;;4998679;28;20034;-72
2022/11/17 08:36:20;;;;;;;12.95;7.95;;;4.80;99.90;;;;;;4998236;28;20044;-72
2022/11/17 08:38:46;;;;;;;13.60;8.13;;;4.80;99.90;;;;;;5001355;28;20041;-72
2022/11/17 08:41:12;;;;;;;12.05;7.90;;;4.80;99.90;;;;;;4996120;28;20061;-72
2022/11/17 08:43:37;;;;;;;14.57;9.57;;;4.90;99.90;;;;;;4996788;28;20442;-72
2022/11/17 08:46:03;;;;;;;12.27;8.05;;;4.90;99.90;;;;;;4998066;28;20655;-73
2022/11/17 08:48:30;;;;;;;12.65;8.52;;;4.90;99.90;;;;;;4997357;28;20061;-73
2022/11/17 08:50:56;;;;;;;13.23;7.85;;;4.90;99.90;;;;;;5013171;28;20489;-73
2022/11/17 08:53:22;;;;;;;12.45;8.43;;;4.80;99.90;;;;;;4996835;28;20442;-73
2022/11/17 08:55:48;;;;;;;13.63;8.35;;;4.80;99.90;;;;;;4996328;28;20023;-73
2022/11/17 08:58:15;;;;;;;12.95;8.57;;;4.80;99.90;;;;;;4980487;28;20494;-73
2022/11/17 09:00:41;;;;;;;16.50;8.88;;;4.80;99.90;;;;;;4995379;28;20029;-73
2022/11/17 09:03:08;;;;;;;12.70;8.90;;;4.90;99.90;;;;;;4999746;28;20064;-73
2022/11/17 09:05:47;;;;;;;14.85;9.07;;;4.90;99.90;;;;;;4997533;28;20034;-73
2022/11/17 09:08:13;;;;;;;13.52;8.30;;;4.90;99.90;;;;;;4997209;28;20105;-74
2022/11/17 09:10:40;;;;;;;12.23;8.48;;;4.90;99.90;;;;;;4996834;28;20029;-73
2022/11/17 09:13:05;;;;;;;16.48;9.73;;;4.90;99.90;;;;;;4997895;28;20026;-73
2022/11/17 09:15:32;;;;;;;14.45;9.05;;;4.90;99.90;;;;;;4973690;28;20182;-71
2022/11/17 09:17:58;;;;;;;19.67;8.98;;;4.90;99.90;;;;;;4996545;28;20025;-72
2022/11/17 09:20:24;;;;;;;12.60;8.43;;;5.00;99.90;;;;;;4995644;28;20104;-73
2022/11/17 09:22:50;;;;;;;14.55;8.98;;;5.00;99.90;;;;;;4999502;28;20124;-72
2022/11/17 09:25:16;;;;;;;14.20;8.88;;;5.00;99.90;;;;;;4995392;28;20049;-72
2022/11/17 09:27:43;;;;;;;14.80;9.77;;;5.00;99.90;;;;;;4997178;28;20525;-73
2022/11/17 09:30:09;;;;;;;15.23;9.75;;;5.00;99.90;;;;;;4997558;28;20030;-72
2022/11/17 09:32:35;;;;;;;16.50;9.20;;;5.00;99.90;;;;;;4996042;28;20026;-73
2022/11/17 09:35:05;;;;;;;13.82;8.95;;;5.00;99.90;;;;;;4995041;28;20497;-73
2022/11/17 09:37:31;;;;;;;15.55;9.75;;;5.00;99.90;;;;;;4996820;28;20289;-73
2022/11/17 09:39:57;;;;;;;18.30;8.98;;;5.00;99.90;;;;;;4998066;28;20030;-73
2022/11/17 09:42:23;;;;;;;14.27;9.23;;;5.10;99.90;;;;;;4994921;28;20034;-72
2022/11/17 09:45:21;;;;;;;15.55;9.25;;;5.00;99.90;;;;;;4997510;28;20378;-72
2022/11/17 09:48:01;;;;;;;14.00;9.45;;;5.10;99.90;;;;;;4994696;28;20040;-73
2022/11/17 09:50:36;;;;;;;16.15;9.70;;;5.10;99.90;;;;;;4998749;28;20092;-73
2022/11/17 09:53:20;;;;;;;15.02;9.73;;;5.00;99.90;;;;;;4979765;28;20494;-73
2022/11/17 09:55:50;;;;;;;15.57;9.95;;;5.00;99.90;;;;;;5030335;28;20030;-73
2022/11/17 09:58:43;;;;;;;14.30;9.32;;;5.10;99.90;;;;;;4995684;28;20578;-73
2022/11/17 10:01:12;;;;;;;15.38;9.57;;;5.10;99.90;;;;;;4997711;28;20076;-73
2022/11/17 10:03:43;;;;;;;16.30;9.60;;;5.10;99.90;;;;;;4997294;28;20061;-73
2022/11/17 10:06:23;;;;;;;15.05;9.82;;;5.10;99.90;;;;;;4996591;28;20068;-72
2022/11/17 10:09:02;;;;;;;14.85;9.50;;;5.10;99.90;;;;;;4995669;28;20543;-73
2022/11/17 10:11:34;;;;;;;15.27;10.13;;;5.10;99.90;;;;;;4990359;28;20030;-73
2022/11/17 10:14:15;;;;;;;16.45;10.20;;;5.10;99.90;;;;;;4998309;28;20032;-72
2022/11/17 10:16:51;;;;;;;15.77;10.40;;;5.10;99.90;;;;;;4994817;28;20045;-73
2022/11/17 10:19:26;;;;;;;18.60;10.32;;;5.10;99.90;;;;;;4997345;28;20577;-73
2022/11/17 10:22:13;;;;;;;17.13;9.77;;;5.20;99.90;;;;;;4994025;28;20030;-72
2022/11/17 10:24:49;;;;;;;17.67;10.80;;;5.10;99.90;;;;;;4994908;28;20038;-72
2022/11/17 10:27:24;;;;;;;17.05;9.57;;;5.10;99.90;;;;;;4994215;28;20442;-72
2022/11/17 10:30:22;;;;;;;14.20;10.02;;;5.10;99.90;;;;;;5014026;28;20033;-73
2022/11/17 10:32:53;;;;;;;14.23;9.65;;;5.10;99.90;;;;;;4995129;28;20025;-72
2022/11/17 10:35:29;;;;;;;;;;;5.10;99.90;;;;;;4982029;28;20034;-73
2022/11/17 10:37:57;;;;;;;15.48;9.70;;;5.10;99.90;;;;;;4993099;28;19952;-73
2022/11/17 10:40:39;;;;;;;16.00;9.55;;;5.10;99.90;;;;;;4995972;28;20034;-73
2022/11/17 10:43:11;;;;;;;16.95;10.75;;;5.10;99.90;;;;;;5008039;28;20030;-72
2022/11/17 10:45:43;;;;;;;17.80;10.35;;;5.10;99.90;;;;;;4996872;28;20026;-72
2022/11/17 10:48:18;;;;;;;16.50;10.85;;;5.10;99.90;;;;;;4994642;28;20022;-73
2022/11/17 10:51:11;;;;;;;19.38;11.38;;;5.10;99.90;;;;;;4989639;28;20029;-72
2022/11/17 10:53:40;;;;;;;16.85;10.23;;;5.10;99.90;;;;;;4988709;28;20117;-72
2022/11/17 10:56:16;;;;;;;15.05;10.68;;;5.00;99.90;;;;;;4998061;28;20018;-73
2022/11/17 10:59:02;;;;;;;16.77;9.95;;;5.10;99.90;;;;;;4982785;28;20489;-72
2022/11/17 11:01:37;;;;;;;16.15;11.38;;;5.10;99.90;;;;;;5027843;28;20034;-72
2022/11/17 11:04:05;;;;;;;18.92;10.90;;;5.10;99.90;;;;;;4996362;28;20109;-72
2022/11/17 11:06:33;;;;;;;17.25;11.05;;;5.10;99.90;;;;;;4994599;28;20517;-73
2022/11/17 11:09:01;;;;;;;17.33;10.60;;;5.10;99.90;;;;;;4996132;28;20030;-73
2022/11/17 11:11:45;;;;;;;15.80;10.45;;;5.00;99.90;;;;;;4997059;28;20022;-71
2022/11/17 11:14:17;;;;;;;15.60;10.40;;;5.00;99.90;;;;;;4998466;28;20018;-72
2022/11/17 11:16:46;;;;;;;18.67;11.73;;;5.00;99.90;;;;;;4990769;28;20505;-72
2022/11/17 11:19:14;;;;;;;15.43;10.90;;;5.00;99.90;;;;;;4994448;28;20038;-72
2022/11/17 11:22:14;;;;;;;18.92;11.80;;;5.00;99.90;;;;;;5025931;28;20022;-72
2022/11/17 11:25:18;;;;;;;19.95;11.38;;;5.00;99.90;;;;;;4995006;28;20084;-72
2022/11/17 11:28:15;;;;;;;17.63;11.98;;;5.00;99.90;;;;;;4959964;28;20050;-74
2022/11/17 11:31:10;;;;;;;18.40;11.35;;;5.00;99.90;;;;;;4994076;28;20109;-73
2022/11/17 11:33:57;;;;;;;18.33;10.90;;;5.00;99.90;;;;;;4972189;28;20044;-73
2022/11/17 11:36:38;;;;;;;17.00;11.25;;;5.00;99.90;;;;;;4992498;28;20071;-73
2022/11/17 11:39:32;;;;;;;18.38;10.35;;;5.10;99.90;;;;;;5025111;28;20498;-72
2022/11/17 11:42:06;;;;;;;17.92;11.00;;;5.00;99.90;;;;;;5021981;28;20035;-74
2022/11/17 11:45:09;;;;;;;18.83;11.63;;;4.90;99.90;;;;;;4980068;28;20029;-72
2022/11/17 11:47:57;;;;;;;16.98;11.00;;;5.00;99.90;;;;;;4992493;28;20034;-73
2022/11/17 11:50:26;;;;;;;18.42;11.90;;;5.00;99.90;;;;;;4992220;28;20031;-73
2022/11/17 11:53:13;;;;;;;20.77;12.25;;;4.80;99.90;;;;;;4994785;28;20502;-73
2022/11/17 11:55:40;;;;;;;20.50;12.30;;;4.80;99.90;;;;;;5000651;28;20026;-73
2022/11/17 11:58:24;;;;;;;22.25;13.68;;;4.70;99.90;;;;;;4997663;28;20080;-73
2022/11/17 12:01:08;;;;;;;19.17;12.38;;;4.60;99.90;;;;;;5001213;28;20050;-73
2022/11/17 12:03:48;;;;;;;18.92;11.73;;;4.60;99.90;;;;;;5029589;28;20037;-73
2022/11/17 12:06:42;;;;;;;21.73;12.93;;;4.60;99.90;;;;;;4998309;28;20384;-73
2022/11/17 12:09:45;;;;;;;19.90;11.82;;;4.60;99.90;;;;;;4998330;28;20092;-73
2022/11/17 12:12:18;;;;;;;21.73;13.00;;;4.60;99.90;;;;;;4996447;28;20044;-73
2022/11/17 12:15:29;;;;;;;19.17;11.82;;;4.80;99.90;;;;;;4997042;28;20049;-73
2022/11/17 12:18:15;;;;;;;22.30;12.70;;;4.60;99.90;;;;;;4994151;28;20042;-73
2022/11/17 12:21:03;;;;;;;19.08;11.77;;;4.60;99.90;;;;;;4997661;28;20556;-73
2022/11/17 12:23:31;;;;;;;21.67;12.60;;;4.60;99.90;;;;;;4996448;28;20578;-73
2022/11/17 12:25:59;;;;;;;19.25;11.68;;;4.60;99.90;;;;;;4998223;28;20073;-73
2022/11/17 12:28:34;;;;;;;23.98;13.27;;;4.60;99.90;;;;;;5000731;28;20034;-73
2022/11/17 12:31:08;;;;;;;24.02;13.57;;;4.50;99.90;;;;;;4997274;28;20478;-71
2022/11/17 12:33:52;;;;;;;22.90;12.85;;;4.50;99.90;;;;;;4997346;28;20056;-71
2022/11/17 12:36:26;;;;;;;21.95;13.65;;;4.50;99.90;;;;;;4998702;28;20022;-72
2022/11/17 12:38:54;;;;;;;22.10;12.80;;;4.60;99.90;;;;;;5034903;28;20030;-71
2022/11/17 12:41:47;;;;;;;21.25;12.30;;;4.60;99.90;;;;;;5030120;28;20023;-71
2022/11/17 12:44:42;;;;;;;19.02;11.50;;;4.60;99.90;;;;;;5028156;28;20398;-71
2022/11/17 12:47:26;;;;;;;19.52;12.02;;;4.60;99.90;;;;;;4991775;28;20183;-72
2022/11/17 12:50:04;;;;;;;19.13;11.57;;;4.60;99.90;;;;;;5030582;28;20031;-72
2022/11/17 12:52:42;;;;;;;22.75;11.90;;;4.70;99.90;;;;;;5030698;28;20709;-72
2022/11/17 12:55:35;;;;;;;22.08;12.77;;;4.70;99.90;;;;;;4999689;28;20103;-72
2022/11/17 12:58:04;;;;;;;20.58;11.90;;;4.70;99.90;;;;;;4998238;28;20058;-72
2022/11/17 13:00:40;;;;;;;22.55;13.23;;;4.60;99.90;;;;;;4998704;28;20026;-73
2022/11/17 13:03:21;;;;;;;19.40;12.70;;;4.60;99.90;;;;;;4995517;28;20030;-72
2022/11/17 13:06:15;;;;;;;24.35;13.40;;;4.70;99.90;;;;;;4999139;28;20030;-72
2022/11/17 13:08:58;;;;;;;22.80;12.73;;;4.60;99.90;;;;;;5031790;28;20076;-72
2022/11/17 13:11:24;;;;;;;22.13;12.98;;;4.60;99.90;;;;;;4999501;28;20030;-72
2022/11/17 13:14:08;;;;;;;22.17;12.73;;;4.60;99.90;;;;;;4994855;28;20015;-72
2022/11/17 13:16:36;;;;;;;25.58;14.98;;;4.60;99.90;;;;;;5008762;28;20541;-72
2022/11/17 13:19:22;;;;;;;24.58;13.48;;;4.50;99.90;;;;;;4997287;28;20429;-72
2022/11/17 13:21:47;;;;;;;25.08;14.40;;;4.50;99.90;;;;;;4997813;28;20027;-72
2022/11/17 13:24:29;;;;;;;23.35;14.15;;;4.50;99.90;;;;;;4999103;28;20026;-72
2022/11/17 13:27:00;;;;;;;24.20;13.32;;;4.50;99.90;;;;;;4996719;28;20049;-72
2022/11/17 13:29:25;;;;;;;24.48;14.15;;;4.40;99.90;;;;;;4997217;28;20407;-72
2022/11/17 13:32:11;;;;;;;26.63;13.68;;;4.40;99.90;;;;;;4994949;28;20046;-72
2022/11/17 13:34:59;;;;;;;24.98;14.23;;;4.40;99.90;;;;;;4999069;28;20096;-72
2022/11/17 13:37:27;;;;;;;27.27;13.98;;;4.40;99.90;;;;;;4997269;28;20055;-72
2022/11/17 13:40:01;;;;;;;22.80;13.40;;;4.40;99.90;;;;;;5031378;28;20026;-72
2022/11/17 13:42:30;;;;;;;25.13;13.77;;;4.40;99.90;;;;;;4997055;28;20093;-72
2022/11/17 13:44:58;;;;;;;25.00;13.95;;;4.40;99.90;;;;;;4996289;28;20041;-72
2022/11/17 13:47:36;;;;;;;25.73;13.70;;;4.30;99.90;;;;;;4995443;28;20034;-72
2022/11/17 13:50:30;;;;;;;29.83;15.50;;;4.30;99.90;;;;;;4998184;28;20027;-72